Terminal Aerodrome Forecast
Issued by NWS

Home | Current Version | Previous Version | Text Only | Print | Product List | Glossary On
Versions: 1 2 3 4 5 6 7 8 9 10 11 12 13 14 15 16 17 18 19 20 21 22 23 24
000
FTUS44 KOUN 240520
TAFWWR
TAF
KWWR 240520Z 2406/2506 14016G24KT P6SM SCT080 BKN250
     FM241500 17016G24KT 6SM -RA OVC050
     FM241900 18018G26KT P6SM OVC050 PROB30 2419/2501 4SM TSRA
      BKN025CB
     FM250100 16014KT P6SM VCSH OVC040=

USA.gov is the U.S. government's official web portal to all federal, state and local government web resources and services.